createdAt,value
2024-03-24T00:04:27.034Z,973.18
2024-03-24T00:16:27.470Z,973.32
2024-03-24T00:28:27.898Z,972.79
2024-03-24T00:40:28.373Z,972.44
2024-03-24T00:52:29.035Z,972.01
2024-03-24T01:04:29.265Z,972.37
2024-03-24T01:16:29.724Z,972.44
2024-03-24T01:28:30.190Z,972.64
2024-03-24T01:40:30.617Z,972.60
2024-03-24T01:52:31.103Z,972.53
2024-03-24T02:04:31.549Z,972.50
2024-03-24T02:16:31.994Z,972.72
2024-03-24T02:28:32.407Z,973.01
2024-03-24T02:40:32.904Z,972.72
2024-03-24T02:52:33.372Z,972.32
2024-03-24T03:04:33.789Z,972.27
2024-03-24T03:16:34.215Z,972.29
2024-03-24T03:28:34.718Z,972.60
2024-03-24T03:40:35.171Z,972.53
2024-03-24T03:52:35.604Z,972.30
2024-03-24T04:04:36.079Z,972.48
2024-03-24T04:16:36.525Z,972.81
2024-03-24T04:28:36.944Z,972.96
2024-03-24T04:40:37.405Z,973.17
2024-03-24T04:52:37.884Z,973.00
2024-03-24T05:04:38.330Z,972.93
2024-03-24T05:16:38.745Z,973.02
2024-03-24T05:28:50.159Z,972.97
2024-03-24T05:40:39.694Z,972.68
2024-03-24T05:52:40.141Z,972.69
2024-03-24T06:04:40.561Z,972.55
2024-03-24T06:16:41.029Z,972.60
2024-03-24T06:28:41.492Z,972.50
2024-03-24T06:40:41.926Z,972.31
2024-03-24T06:52:42.358Z,972.14
2024-03-24T07:04:42.849Z,971.93
2024-03-24T07:16:43.278Z,971.65
2024-03-24T07:28:43.716Z,970.83
2024-03-24T07:40:44.227Z,970.42
2024-03-24T07:52:44.659Z,970.33
2024-03-24T08:04:45.133Z,970.21
2024-03-24T08:16:45.564Z,970.11
2024-03-24T08:28:46.013Z,970.02
2024-03-24T08:40:46.477Z,969.95
2024-03-24T08:52:46.920Z,969.97
2024-03-24T09:04:47.384Z,969.76
2024-03-24T09:16:47.849Z,969.95
2024-03-24T09:28:48.269Z,969.77
2024-03-24T09:40:48.728Z,969.57
2024-03-24T09:52:49.185Z,969.62
2024-03-24T10:04:49.648Z,969.57
2024-03-24T10:16:50.100Z,969.46
2024-03-24T10:28:50.537Z,969.46
2024-03-24T10:40:53.104Z,969.67
2024-03-24T10:52:53.680Z,969.75
2024-03-24T11:04:51.910Z,969.69
2024-03-24T11:16:52.312Z,969.54
2024-03-24T11:28:52.815Z,969.34
2024-03-24T11:40:53.573Z,969.10
2024-03-24T11:52:53.727Z,968.92
2024-03-24T12:04:54.194Z,968.73
2024-03-24T12:16:54.634Z,968.50
2024-03-24T12:28:55.115Z,968.28
2024-03-24T12:40:55.591Z,968.34
2024-03-24T12:52:57.444Z,968.23
2024-03-24T13:04:56.436Z,967.95
2024-03-24T13:16:56.900Z,967.93
2024-03-24T13:28:57.358Z,967.79
2024-03-24T13:40:57.769Z,967.71
2024-03-24T13:52:58.274Z,967.74
2024-03-24T14:04:58.736Z,967.47
2024-03-24T14:16:59.177Z,967.65
2024-03-24T14:28:59.644Z,967.56
2024-03-24T14:41:00.109Z,967.61
2024-03-24T14:53:00.539Z,967.41
2024-03-24T15:05:00.988Z,967.67
2024-03-24T15:17:01.431Z,967.43
2024-03-24T15:29:01.916Z,967.57
2024-03-24T15:53:02.789Z,967.60
2024-03-24T16:05:03.225Z,967.64
2024-03-24T16:17:03.731Z,967.65
2024-03-24T16:29:04.149Z,967.71
2024-03-24T16:41:04.626Z,967.86
2024-03-24T16:53:05.047Z,967.83
2024-03-24T17:05:05.561Z,967.96
2024-03-24T17:17:06.006Z,967.99
2024-03-24T17:29:06.450Z,968.10
2024-03-24T17:41:06.917Z,968.27
2024-03-24T17:53:07.348Z,968.30
2024-03-24T18:05:07.775Z,968.29
2024-03-24T18:17:08.253Z,968.36
2024-03-24T18:29:08.705Z,968.43
2024-03-24T18:41:09.103Z,968.40
2024-03-24T18:53:09.620Z,968.54
2024-03-24T19:05:10.055Z,968.68
2024-03-24T19:17:10.515Z,968.90
2024-03-24T19:29:10.923Z,968.96
2024-03-24T19:41:11.448Z,968.94
2024-03-24T19:53:11.886Z,968.91
2024-03-24T20:05:12.299Z,969.00
2024-03-24T20:17:12.781Z,968.92
2024-03-24T20:29:13.264Z,968.88
2024-03-24T20:41:13.726Z,968.94
2024-03-24T20:53:14.179Z,968.95
2024-03-24T21:05:14.549Z,969.04
2024-03-24T21:17:15.039Z,969.11
2024-03-24T21:29:15.477Z,969.01
2024-03-24T21:41:15.933Z,968.93
2024-03-24T21:53:16.408Z,968.96
2024-03-24T22:05:16.834Z,968.80
2024-03-24T22:17:17.300Z,968.76
2024-03-24T22:29:17.768Z,968.76
2024-03-24T22:41:18.189Z,968.84
2024-03-24T22:53:18.659Z,968.80
2024-03-24T23:05:19.058Z,968.94
2024-03-24T23:17:19.512Z,969.04
2024-03-24T23:29:20.003Z,969.28
2024-03-24T23:41:20.460Z,969.14
2024-03-24T23:53:20.899Z,969.11
